createdAt,value
2022-09-12T00:02:26.162Z,4.70
2022-09-12T00:04:54.573Z,4.18
2022-09-12T00:07:23.665Z,4.88
2022-09-12T00:09:53.401Z,4.35
2022-09-12T00:12:22.511Z,4.15
2022-09-12T00:14:51.204Z,3.78
2022-09-12T00:17:21.671Z,6.25
2022-09-12T00:19:50.055Z,4.18
2022-09-12T00:22:18.862Z,27.33
2022-09-12T00:24:48.709Z,78.38
2022-09-12T00:27:17.318Z,11.57
2022-09-12T00:29:45.981Z,5.20
2022-09-12T00:32:14.358Z,4.57
2022-09-12T00:34:42.844Z,4.50
2022-09-12T00:37:12.997Z,4.55
2022-09-12T00:39:41.469Z,5.70
2022-09-12T00:42:10.527Z,5.95
2022-09-12T00:44:39.159Z,6.38
2022-09-12T00:47:15.169Z,4.80
2022-09-12T00:50:09.150Z,6.20
2022-09-12T00:52:45.392Z,9.88
2022-09-12T00:55:21.093Z,5.53
2022-09-12T00:58:08.637Z,6.20
2022-09-12T01:00:38.594Z,6.28
2022-09-12T01:03:16.846Z,5.35
2022-09-12T01:06:08.916Z,5.25
2022-09-12T01:08:38.161Z,4.70
2022-09-12T01:11:10.051Z,5.00
2022-09-12T01:13:38.513Z,4.00
2022-09-12T01:16:10.978Z,5.57
2022-09-12T01:18:59.445Z,5.90
2022-09-12T01:22:00.885Z,4.18
2022-09-12T01:24:53.573Z,4.07
2022-09-12T01:27:46.455Z,3.60
2022-09-12T01:30:31.590Z,3.78
2022-09-12T01:33:27.964Z,3.83
2022-09-12T01:36:13.000Z,4.15
2022-09-12T01:38:41.846Z,3.90
2022-09-12T01:41:37.202Z,4.00
2022-09-12T01:44:32.445Z,4.00
2022-09-12T01:47:19.858Z,5.93
2022-09-12T01:50:01.864Z,4.50
2022-09-12T01:52:39.562Z,4.88
2022-09-12T01:55:38.967Z,4.95
2022-09-12T01:58:30.381Z,4.40
2022-09-12T02:01:08.824Z,4.47
2022-09-12T02:04:10.844Z,4.53
2022-09-12T02:07:00.301Z,4.22
2022-09-12T02:09:59.803Z,4.85
2022-09-12T02:12:34.434Z,4.55
2022-09-12T02:15:07.898Z,4.68
2022-09-12T02:17:42.749Z,4.32
2022-09-12T02:20:44.031Z,4.83
2022-09-12T02:23:15.091Z,3.97
2022-09-12T02:25:49.068Z,5.77
2022-09-12T02:28:42.030Z,4.30
2022-09-12T02:31:46.629Z,4.18
2022-09-12T02:34:15.181Z,5.22
2022-09-12T02:37:00.564Z,4.78
2022-09-12T02:39:28.998Z,4.70
2022-09-12T02:41:59.688Z,5.47
2022-09-12T02:44:30.074Z,4.40
2022-09-12T02:47:09.143Z,4.30
2022-09-12T02:49:37.947Z,3.95
2022-09-12T02:52:07.522Z,4.50
2022-09-12T02:54:37.884Z,5.18
2022-09-12T02:57:18.509Z,5.35
2022-09-12T02:59:57.294Z,5.27
2022-09-12T03:02:52.947Z,4.50
2022-09-12T03:05:32.021Z,4.47
2022-09-12T03:08:32.207Z,4.32
2022-09-12T03:11:02.592Z,5.57
2022-09-12T03:13:32.317Z,4.70
2022-09-12T03:16:39.566Z,4.90
2022-09-12T03:19:37.229Z,6.15
2022-09-12T03:22:24.708Z,5.57
2022-09-12T03:25:09.724Z,4.40
2022-09-12T03:27:58.961Z,5.40
2022-09-12T03:30:28.658Z,4.28
2022-09-12T03:33:00.355Z,4.63
2022-09-12T03:35:29.436Z,6.18
2022-09-12T03:37:57.683Z,7.95
2022-09-12T03:40:26.248Z,8.05
2022-09-12T03:42:55.123Z,15.77
2022-09-12T03:45:23.353Z,58.38
2022-09-12T03:47:54.764Z,8.00
2022-09-12T03:50:24.677Z,7.45
2022-09-12T03:52:53.786Z,4.85
2022-09-12T03:55:22.628Z,6.20
2022-09-12T03:57:58.547Z,6.57
2022-09-12T04:00:27.887Z,5.13
2022-09-12T04:02:59.263Z,34.47
2022-09-12T04:05:27.888Z,19.30
2022-09-12T04:08:02.552Z,16.20
2022-09-12T04:10:34.501Z,9.60
2022-09-12T04:13:08.678Z,5.45
2022-09-12T04:15:43.326Z,28.15
2022-09-12T04:18:18.325Z,32.20
2022-09-12T04:20:47.206Z,6.20
2022-09-12T04:23:15.599Z,4.13
2022-09-12T04:25:44.696Z,3.78
2022-09-12T04:28:13.307Z,11.30
2022-09-12T04:30:41.668Z,15.32
2022-09-12T04:33:10.106Z,14.60
2022-09-12T04:35:39.635Z,23.42
2022-09-12T04:38:08.564Z,25.60
2022-09-12T04:40:36.753Z,18.38
2022-09-12T04:43:09.232Z,13.93
2022-09-12T04:45:39.910Z,14.10
2022-09-12T04:48:09.780Z,8.82
2022-09-12T04:50:38.643Z,9.73
2022-09-12T04:53:07.650Z,9.73
2022-09-12T04:55:36.552Z,7.55
2022-09-12T04:58:04.756Z,7.90
2022-09-12T05:00:33.612Z,9.90
2022-09-12T05:03:03.174Z,8.07
2022-09-12T05:05:31.477Z,12.60
2022-09-12T05:08:00.740Z,7.50
2022-09-12T05:10:29.701Z,14.52
2022-09-12T05:12:58.663Z,7.68
2022-09-12T05:15:26.950Z,10.27
2022-09-12T05:17:55.372Z,11.05
2022-09-12T05:20:24.000Z,12.77
2022-09-12T05:22:55.219Z,6.13
2022-09-12T05:25:24.827Z,5.88
2022-09-12T05:27:53.508Z,4.97
2022-09-12T05:30:22.213Z,5.18
2022-09-12T05:32:59.148Z,4.65
2022-09-12T05:35:27.821Z,4.25
2022-09-12T05:37:56.392Z,3.20
2022-09-12T05:40:25.788Z,2.92
2022-09-12T05:42:55.063Z,2.60
2022-09-12T05:45:24.753Z,3.50
2022-09-12T05:48:01.238Z,3.22
2022-09-12T05:50:30.820Z,2.42
2022-09-12T05:52:59.558Z,2.00
2022-09-12T05:55:28.086Z,4.45
2022-09-12T05:57:59.795Z,2.60
2022-09-12T06:00:32.917Z,1.85
2022-09-12T06:03:04.477Z,1.95
2022-09-12T06:05:34.180Z,1.90
2022-09-12T06:08:02.530Z,2.47
2022-09-12T06:10:35.451Z,2.40
2022-09-12T06:13:04.503Z,2.42
2022-09-12T06:15:33.111Z,9.65
2022-09-12T06:18:01.698Z,3.33
2022-09-12T06:20:35.708Z,2.40
2022-09-12T06:23:05.085Z,1.90
2022-09-12T06:25:33.314Z,3.03
2022-09-12T06:28:02.602Z,1.60
2022-09-12T06:30:33.723Z,2.00
2022-09-12T06:33:01.995Z,1.65
2022-09-12T06:35:30.642Z,1.90
2022-09-12T06:40:34.392Z,1.80
2022-09-12T06:43:03.900Z,1.45
2022-09-12T06:45:35.680Z,1.73
2022-09-12T06:48:04.762Z,1.67
2022-09-12T06:50:35.478Z,2.05
2022-09-12T06:53:05.388Z,1.60
2022-09-12T06:55:37.144Z,1.80
2022-09-12T06:58:08.600Z,1.70
2022-09-12T07:00:37.331Z,2.30
2022-09-12T07:03:05.555Z,1.52
2022-09-12T07:05:36.130Z,3.33
2022-09-12T07:08:04.619Z,1.63
2022-09-12T07:10:33.387Z,1.30
2022-09-12T07:13:02.069Z,1.40
2022-09-12T07:15:30.361Z,1.70
2022-09-12T07:17:59.932Z,1.40
2022-09-12T07:20:35.351Z,1.50
2022-09-12T07:23:04.348Z,1.38
2022-09-12T07:25:33.147Z,1.30
2022-09-12T07:28:02.651Z,1.30
2022-09-12T07:30:31.416Z,1.50
2022-09-12T07:33:00.971Z,1.60
2022-09-12T07:35:33.657Z,1.08
2022-09-12T07:38:03.470Z,1.55
2022-09-12T07:40:32.274Z,1.30
2022-09-12T07:43:01.648Z,1.95
2022-09-12T07:45:33.748Z,1.50
2022-09-12T07:48:03.164Z,1.80
2022-09-12T07:50:33.622Z,1.30
2022-09-12T07:53:03.991Z,1.67
2022-09-12T07:55:32.888Z,1.50
2022-09-12T07:58:01.418Z,1.40
2022-09-12T08:00:36.072Z,1.40
2022-09-12T08:03:04.627Z,2.55
2022-09-12T08:05:33.361Z,8.95
2022-09-12T08:08:01.952Z,1.73
2022-09-12T08:10:32.089Z,2.00
2022-09-12T08:13:01.054Z,1.48
2022-09-12T08:15:29.561Z,1.77
2022-09-12T08:18:00.145Z,1.70
2022-09-12T08:20:30.514Z,1.48
2022-09-12T08:23:04.055Z,1.60
2022-09-12T08:25:32.540Z,1.65
2022-09-12T08:31:21.582Z,1.80
2022-09-12T08:34:10.926Z,1.38
2022-09-12T08:36:49.622Z,1.60
2022-09-12T08:45:49.464Z,2.53
2022-09-12T08:48:18.152Z,2.10
2022-09-12T08:50:49.918Z,1.50
2022-09-12T08:53:31.616Z,1.75
2022-09-12T08:56:16.854Z,12.35
2022-09-12T08:58:53.394Z,4.38
2022-09-12T09:01:54.438Z,2.33
2022-09-12T09:07:56.193Z,1.90
2022-09-12T09:11:25.099Z,4.25
2022-09-12T09:17:39.028Z,1.90
2022-09-12T09:20:43.559Z,2.03
2022-09-12T09:23:57.652Z,1.75
2022-09-12T09:26:59.492Z,1.90
2022-09-12T09:29:51.043Z,1.80
2022-09-12T09:32:34.874Z,2.45
2022-09-12T09:38:23.381Z,1.70
2022-09-12T09:41:39.066Z,1.50
2022-09-12T09:47:28.653Z,1.10
2022-09-12T09:50:00.254Z,1.73
2022-09-12T09:52:33.815Z,1.52
2022-09-12T09:55:06.777Z,1.20
2022-09-12T09:57:54.854Z,1.65
2022-09-12T10:00:38.518Z,1.55
2022-09-12T10:03:46.752Z,2.05
2022-09-12T10:06:39.783Z,1.60
2022-09-12T10:09:24.603Z,1.40
2022-09-12T10:12:28.551Z,4.00
2022-09-12T10:15:02.346Z,1.50
2022-09-12T10:17:42.197Z,2.58
2022-09-12T10:20:30.472Z,2.35
2022-09-12T10:23:00.845Z,3.60
2022-09-12T10:25:31.071Z,2.45
2022-09-12T10:28:01.667Z,1.33
2022-09-12T10:30:30.904Z,1.90
2022-09-12T10:33:07.085Z,2.63
2022-09-12T10:35:47.716Z,1.77
2022-09-12T10:38:34.525Z,1.70
2022-09-12T10:41:24.991Z,1.77
2022-09-12T10:43:53.673Z,1.70
2022-09-12T10:46:28.930Z,3.53
2022-09-12T10:49:23.518Z,2.70
2022-09-12T10:51:54.250Z,5.40
2022-09-12T10:54:27.056Z,5.10
2022-09-12T10:57:17.180Z,4.57
2022-09-12T10:59:56.631Z,10.25
2022-09-12T11:02:30.026Z,3.83
2022-09-12T11:05:18.365Z,3.90
2022-09-12T11:07:58.524Z,3.47
2022-09-12T11:10:50.393Z,4.30
2022-09-12T11:13:24.388Z,2.50
2022-09-12T11:15:53.565Z,3.38
2022-09-12T11:18:50.120Z,2.17
2022-09-12T11:21:36.720Z,2.35
2022-09-12T11:24:35.236Z,2.55
2022-09-12T11:27:16.751Z,4.88
2022-09-12T11:30:08.604Z,1.52
2022-09-12T11:32:37.320Z,2.03
2022-09-12T11:35:08.217Z,1.95
2022-09-12T11:38:18.576Z,1.73
2022-09-12T11:41:00.192Z,2.75
2022-09-12T11:43:49.228Z,1.08
2022-09-12T11:46:31.929Z,1.23
2022-09-12T11:49:15.770Z,1.25
2022-09-12T11:51:54.000Z,1.50
2022-09-12T11:55:01.153Z,1.50
2022-09-12T11:57:53.827Z,2.05
2022-09-12T12:00:45.690Z,2.15
2022-09-12T12:03:31.432Z,2.20
2022-09-12T12:06:00.674Z,1.10
2022-09-12T12:08:32.013Z,2.10
2022-09-12T12:11:05.077Z,0.90
2022-09-12T12:13:51.248Z,2.95
2022-09-12T12:16:33.386Z,2.40
2022-09-12T12:19:10.782Z,2.10
2022-09-12T12:21:52.898Z,1.85
2022-09-12T12:24:24.368Z,2.55
2022-09-12T12:27:03.425Z,1.23
2022-09-12T12:29:50.454Z,2.80
2022-09-12T12:32:19.354Z,2.30
2022-09-12T12:34:49.946Z,1.92
2022-09-12T12:37:30.069Z,1.20
2022-09-12T12:40:34.243Z,1.13
2022-09-12T12:43:06.267Z,1.45
2022-09-12T12:45:38.241Z,2.10
2022-09-12T12:48:16.894Z,1.60
2022-09-12T12:50:46.894Z,3.40
2022-09-12T12:53:29.106Z,1.92
2022-09-12T12:55:58.396Z,1.75
2022-09-12T12:58:40.163Z,2.30
2022-09-12T13:01:10.357Z,2.40
2022-09-12T13:03:39.650Z,4.22
2022-09-12T13:06:11.584Z,2.60
2022-09-12T13:08:44.299Z,5.03
2022-09-12T13:11:17.859Z,2.80
2022-09-12T13:13:52.310Z,3.80
2022-09-12T13:16:35.869Z,1.92
2022-09-12T13:19:24.161Z,1.67
2022-09-12T13:22:03.881Z,2.70
2022-09-12T13:24:35.587Z,10.07
2022-09-12T13:27:04.263Z,2.33
2022-09-12T13:29:38.788Z,5.40
2022-09-12T13:32:14.160Z,5.35
2022-09-12T13:35:11.618Z,3.28
2022-09-12T13:37:51.361Z,6.30
2022-09-12T13:40:55.381Z,2.33
2022-09-12T13:43:38.030Z,4.63
2022-09-12T13:46:10.169Z,2.83
2022-09-12T13:48:41.989Z,16.83
2022-09-12T13:51:30.232Z,21.70
2022-09-12T13:54:05.656Z,22.67
2022-09-12T13:56:34.731Z,20.30
2022-09-12T13:59:04.628Z,6.93
2022-09-12T14:01:40.634Z,13.88
2022-09-12T14:04:34.004Z,7.93
2022-09-12T14:07:26.694Z,4.53
2022-09-12T14:09:57.881Z,13.38
2022-09-12T14:12:41.786Z,27.35
2022-09-12T14:15:19.966Z,5.93
2022-09-12T14:17:52.197Z,8.23
2022-09-12T14:20:23.412Z,7.82
2022-09-12T14:22:53.989Z,2.75
2022-09-12T14:25:32.631Z,6.80
2022-09-12T14:28:01.239Z,10.20
2022-09-12T14:30:36.393Z,2.33
2022-09-12T14:33:10.504Z,3.97
2022-09-12T14:36:07.965Z,3.00
2022-09-12T14:38:44.260Z,6.85
2022-09-12T14:41:16.919Z,5.18
2022-09-12T14:43:48.998Z,7.72
2022-09-12T14:46:25.343Z,3.95
2022-09-12T14:49:02.150Z,8.80
2022-09-12T14:51:36.837Z,4.60
2022-09-12T14:54:05.756Z,5.75
2022-09-12T14:56:53.193Z,2.17
2022-09-12T14:59:38.603Z,3.63
2022-09-12T15:02:25.730Z,1.63
2022-09-12T15:05:15.715Z,3.72
2022-09-12T15:08:02.771Z,5.80
2022-09-12T15:10:40.351Z,3.28
2022-09-12T15:13:11.609Z,1.85
2022-09-12T15:15:46.666Z,3.33
2022-09-12T15:18:18.936Z,2.70
2022-09-12T15:20:50.301Z,2.63
2022-09-12T15:23:51.028Z,2.92
2022-09-12T15:26:28.168Z,2.10
2022-09-12T15:29:02.164Z,3.42
2022-09-12T15:31:32.191Z,3.35
2022-09-12T15:34:02.333Z,3.85
2022-09-12T15:36:31.981Z,2.65
2022-09-12T15:39:03.887Z,8.65
2022-09-12T15:41:34.660Z,2.22
2022-09-12T15:44:10.517Z,3.00
2022-09-12T15:46:39.283Z,6.20
2022-09-12T15:49:07.942Z,5.47
2022-09-12T15:51:36.853Z,6.35
2022-09-12T15:54:05.547Z,2.38
2022-09-12T15:56:34.346Z,3.25
2022-09-12T15:59:02.662Z,5.03
2022-09-12T16:01:32.800Z,6.90
2022-09-12T16:04:04.091Z,2.30
2022-09-12T16:06:37.170Z,2.42
2022-09-12T16:09:06.600Z,3.30
2022-09-12T16:11:36.539Z,54.08
2022-09-12T16:14:06.235Z,3.70
2022-09-12T16:16:35.789Z,13.02
2022-09-12T16:19:20.081Z,25.55
2022-09-12T16:21:49.176Z,6.13
2022-09-12T16:24:33.385Z,7.68
2022-09-12T16:27:06.079Z,6.78
2022-09-12T16:29:34.987Z,3.60
2022-09-12T16:32:04.044Z,4.55
2022-09-12T16:34:33.260Z,5.28
2022-09-12T16:37:03.231Z,3.72
2022-09-12T16:39:32.656Z,16.27
2022-09-12T16:42:01.071Z,15.15
2022-09-12T16:44:30.645Z,6.57
2022-09-12T16:46:58.807Z,19.48
2022-09-12T16:49:31.903Z,29.40
2022-09-12T16:52:01.347Z,46.15
2022-09-12T16:54:30.323Z,25.50
2022-09-12T16:56:59.783Z,13.55
2022-09-12T16:59:40.689Z,19.63
2022-09-12T17:02:30.297Z,9.63
2022-09-12T17:05:04.960Z,25.08
2022-09-12T17:07:41.229Z,17.20
2022-09-12T17:10:15.386Z,14.20
2022-09-12T17:13:16.833Z,11.20
2022-09-12T17:16:01.814Z,8.00
2022-09-12T17:18:31.177Z,11.35
2022-09-12T17:21:01.722Z,13.13
2022-09-12T17:23:31.171Z,10.70
2022-09-12T17:26:03.402Z,13.85
2022-09-12T17:29:14.040Z,9.77
2022-09-12T17:31:53.307Z,15.77
2022-09-12T17:34:50.404Z,33.22
2022-09-12T17:37:24.780Z,66.53
2022-09-12T17:39:56.043Z,50.78
2022-09-12T17:50:31.198Z,21.40
2022-09-12T17:56:56.520Z,20.90
2022-09-12T17:59:51.966Z,10.60
2022-09-12T18:02:33.209Z,16.55
2022-09-12T18:05:05.432Z,25.60
2022-09-12T18:07:39.919Z,42.72
2022-09-12T18:10:12.536Z,25.10
2022-09-12T18:12:41.560Z,35.78
2022-09-12T18:15:11.304Z,46.60
2022-09-12T18:17:42.331Z,46.80
2022-09-12T18:20:11.394Z,39.80
2022-09-12T18:22:39.795Z,21.23
2022-09-12T18:25:08.704Z,13.43
2022-09-12T18:27:37.896Z,10.68
2022-09-12T18:30:22.299Z,16.73
2022-09-12T18:32:51.615Z,13.98
2022-09-12T18:35:19.956Z,51.03
2022-09-12T18:37:48.914Z,48.67
2022-09-12T18:40:18.620Z,63.30
2022-09-12T18:42:47.981Z,41.45
2022-09-12T18:45:17.509Z,36.78
2022-09-12T18:47:46.494Z,36.70
2022-09-12T18:50:14.819Z,27.20
2022-09-12T18:52:43.908Z,39.95
2022-09-12T18:55:13.103Z,38.28
2022-09-12T18:57:43.329Z,34.13
2022-09-12T19:00:16.094Z,30.52
2022-09-12T19:02:46.132Z,25.25
2022-09-12T19:05:15.183Z,20.88
2022-09-12T19:07:44.639Z,17.98
2022-09-12T19:10:13.128Z,34.35
2022-09-12T19:12:41.825Z,51.00
2022-09-12T19:15:10.435Z,42.80
2022-09-12T19:17:39.849Z,39.58
2022-09-12T19:20:08.880Z,36.47
2022-09-12T19:22:37.544Z,50.10
2022-09-12T19:25:22.128Z,57.03
2022-09-12T19:27:50.748Z,55.25
2022-09-12T19:30:19.676Z,52.30
2022-09-12T19:32:47.987Z,50.90
2022-09-12T19:35:16.709Z,55.63
2022-09-12T19:37:45.614Z,58.63
2022-09-12T19:40:16.474Z,51.63
2022-09-12T19:42:44.909Z,50.90
2022-09-12T19:45:16.502Z,47.25
2022-09-12T19:47:44.539Z,49.67
2022-09-12T19:50:14.171Z,54.53
2022-09-12T19:52:42.879Z,50.10
2022-09-12T19:55:12.578Z,54.95
2022-09-12T19:57:41.255Z,45.60
2022-09-12T20:00:11.504Z,41.00
2022-09-12T20:02:40.313Z,36.15
2022-09-12T20:05:08.755Z,34.50
2022-09-12T20:07:39.450Z,30.15
2022-09-12T20:10:08.370Z,32.85
2022-09-12T20:12:39.810Z,36.55
2022-09-12T20:15:09.105Z,31.67
2022-09-12T20:17:38.104Z,29.50
2022-09-12T20:20:07.842Z,37.05
2022-09-12T20:22:39.872Z,33.20
2022-09-12T20:25:08.954Z,35.35
2022-09-12T20:27:37.623Z,31.48
2022-09-12T20:30:06.251Z,31.98
2022-09-12T20:32:37.383Z,32.72
2022-09-12T20:35:06.993Z,27.73
2022-09-12T20:37:36.072Z,29.63
2022-09-12T20:40:05.994Z,35.35
2022-09-12T20:42:34.426Z,29.23
2022-09-12T20:45:03.304Z,29.40
2022-09-12T20:47:31.872Z,30.13
2022-09-12T20:50:02.235Z,30.98
2022-09-12T20:52:32.552Z,31.83
2022-09-12T20:55:00.919Z,27.92
2022-09-12T20:57:29.476Z,28.23
2022-09-12T20:59:57.711Z,32.60
2022-09-12T21:02:26.701Z,35.45
2022-09-12T21:04:57.844Z,35.22
2022-09-12T21:07:26.333Z,35.30
2022-09-12T21:09:54.920Z,29.85
2022-09-12T21:15:11.097Z,33.33
2022-09-12T21:18:00.484Z,36.63
2022-09-12T21:20:28.925Z,49.50
2022-09-12T21:22:57.629Z,43.03
2022-09-12T21:25:26.245Z,34.15
2022-09-12T21:27:54.643Z,30.77
2022-09-12T21:30:25.059Z,28.38
2022-09-12T21:33:07.117Z,31.60
2022-09-12T21:35:36.913Z,26.60
2022-09-12T21:38:05.200Z,26.70
2022-09-12T21:40:33.767Z,22.33
2022-09-12T21:43:03.285Z,26.77
2022-09-12T21:45:32.958Z,24.55
2022-09-12T21:48:02.048Z,25.02
2022-09-12T21:50:30.875Z,26.42
2022-09-12T21:52:59.178Z,24.85
2022-09-12T21:55:27.553Z,22.48
2022-09-12T21:57:57.611Z,23.30
2022-09-12T22:00:27.760Z,23.63
2022-09-12T22:02:56.668Z,22.80
2022-09-12T22:05:25.940Z,27.33
2022-09-12T22:07:54.319Z,22.20
2022-09-12T22:10:22.930Z,15.60
2022-09-12T22:12:54.872Z,14.20
2022-09-12T22:15:39.919Z,17.92
2022-09-12T22:18:15.218Z,21.88
2022-09-12T22:20:43.578Z,21.85
2022-09-12T22:23:31.954Z,21.88
2022-09-12T22:26:02.876Z,22.45
2022-09-12T22:28:32.384Z,20.80
2022-09-12T22:31:00.686Z,21.70
2022-09-12T22:33:35.869Z,22.27
2022-09-12T22:36:04.568Z,21.52
2022-09-12T22:38:33.718Z,22.38
2022-09-12T22:41:10.808Z,36.67
2022-09-12T22:43:41.030Z,22.80
2022-09-12T22:46:12.244Z,21.08
2022-09-12T22:48:41.476Z,26.20
2022-09-12T22:51:10.819Z,20.67
2022-09-12T22:53:39.395Z,20.45
2022-09-12T22:56:07.974Z,22.48
2022-09-12T22:58:38.817Z,23.55
2022-09-12T23:01:07.249Z,21.27
2022-09-12T23:03:37.479Z,18.50
2022-09-12T23:06:07.236Z,19.98
2022-09-12T23:08:43.094Z,19.33
2022-09-12T23:11:14.706Z,18.65
2022-09-12T23:13:45.223Z,17.77
2022-09-12T23:16:22.210Z,16.95
2022-09-12T23:18:51.964Z,17.75
2022-09-12T23:21:22.809Z,17.42
2022-09-12T23:23:52.162Z,18.58
2022-09-12T23:26:25.108Z,19.13
2022-09-12T23:28:55.527Z,18.90
2022-09-12T23:31:26.305Z,17.55
2022-09-12T23:33:56.307Z,16.23
2022-09-12T23:36:27.274Z,14.07
2022-09-12T23:38:55.855Z,14.48
2022-09-12T23:41:25.005Z,31.70
2022-09-12T23:43:55.066Z,15.05
2022-09-12T23:46:25.339Z,15.00
2022-09-12T23:48:55.807Z,14.55
2022-09-12T23:51:24.512Z,12.32
2022-09-12T23:53:53.978Z,12.23
2022-09-12T23:56:22.326Z,11.20
2022-09-12T23:58:51.105Z,12.50
